sensor_id;sensor_type;location;lat;lon;timestamp;temperature;humidity
77592;DHT22;66891;46.884;17.436;2023-08-08T00:01:45;12.88;87.09
77592;DHT22;66891;46.884;17.436;2023-08-08T00:04:13;12.98;87.33
77592;DHT22;66891;46.884;17.436;2023-08-08T00:06:40;12.89;87.38
77592;DHT22;66891;46.884;17.436;2023-08-08T00:09:08;12.99;87.65
77592;DHT22;66891;46.884;17.436;2023-08-08T00:11:35;12.95;87.64
77592;DHT22;66891;46.884;17.436;2023-08-08T00:14:02;13.03;87.50
77592;DHT22;66891;46.884;17.436;2023-08-08T00:16:30;13.13;87.21
77592;DHT22;66891;46.884;17.436;2023-08-08T00:18:59;13.19;87.50
77592;DHT22;66891;46.884;17.436;2023-08-08T00:21:26;13.20;87.10
77592;DHT22;66891;46.884;17.436;2023-08-08T00:23:53;13.02;88.10
77592;DHT22;66891;46.884;17.436;2023-08-08T00:26:21;13.03;88.42
77592;DHT22;66891;46.884;17.436;2023-08-08T00:28:48;12.99;88.29
77592;DHT22;66891;46.884;17.436;2023-08-08T00:31:15;12.95;88.20
77592;DHT22;66891;46.884;17.436;2023-08-08T00:33:44;13.23;87.86
77592;DHT22;66891;46.884;17.436;2023-08-08T00:36:13;13.13;88.34
77592;DHT22;66891;46.884;17.436;2023-08-08T00:38:41;13.05;88.36
77592;DHT22;66891;46.884;17.436;2023-08-08T00:41:08;13.23;88.79
77592;DHT22;66891;46.884;17.436;2023-08-08T00:43:35;13.42;87.07
77592;DHT22;66891;46.884;17.436;2023-08-08T00:46:03;13.51;87.11
77592;DHT22;66891;46.884;17.436;2023-08-08T00:48:30;13.46;88.10
77592;DHT22;66891;46.884;17.436;2023-08-08T00:50:58;13.51;88.30
77592;DHT22;66891;46.884;17.436;2023-08-08T00:53:28;13.44;87.44
77592;DHT22;66891;46.884;17.436;2023-08-08T00:55:59;13.53;87.78
77592;DHT22;66891;46.884;17.436;2023-08-08T00:58:27;13.58;87.89
77592;DHT22;66891;46.884;17.436;2023-08-08T01:00:54;13.54;88.10
77592;DHT22;66891;46.884;17.436;2023-08-08T01:03:24;13.54;88.50
77592;DHT22;66891;46.884;17.436;2023-08-08T01:05:58;13.57;88.06
77592;DHT22;66891;46.884;17.436;2023-08-08T01:08:35;13.67;88.60
77592;DHT22;66891;46.884;17.436;2023-08-08T01:11:05;13.70;88.36
77592;DHT22;66891;46.884;17.436;2023-08-08T01:13:33;13.67;88.34
77592;DHT22;66891;46.884;17.436;2023-08-08T01:16:03;13.60;88.45
77592;DHT22;66891;46.884;17.436;2023-08-08T01:18:32;13.61;88.27
77592;DHT22;66891;46.884;17.436;2023-08-08T01:21:01;13.63;88.56
77592;DHT22;66891;46.884;17.436;2023-08-08T01:23:37;13.79;88.75
77592;DHT22;66891;46.884;17.436;2023-08-08T01:26:07;13.94;88.43
77592;DHT22;66891;46.884;17.436;2023-08-08T01:28:35;13.78;88.66
77592;DHT22;66891;46.884;17.436;2023-08-08T01:31:02;13.60;88.49
77592;DHT22;66891;46.884;17.436;2023-08-08T01:33:29;13.61;88.65
77592;DHT22;66891;46.884;17.436;2023-08-08T01:36:02;13.57;88.80
77592;DHT22;66891;46.884;17.436;2023-08-08T01:38:34;13.67;87.95
77592;DHT22;66891;46.884;17.436;2023-08-08T01:41:04;13.74;87.87
77592;DHT22;66891;46.884;17.436;2023-08-08T01:43:35;13.75;87.62
77592;DHT22;66891;46.884;17.436;2023-08-08T01:46:05;13.64;87.51
77592;DHT22;66891;46.884;17.436;2023-08-08T01:48:33;13.71;87.40
77592;DHT22;66891;46.884;17.436;2023-08-08T01:51:01;13.57;88.34
77592;DHT22;66891;46.884;17.436;2023-08-08T01:53:28;13.75;87.49
77592;DHT22;66891;46.884;17.436;2023-08-08T01:55:55;13.54;88.01
77592;DHT22;66891;46.884;17.436;2023-08-08T01:58:23;13.54;88.70
77592;DHT22;66891;46.884;17.436;2023-08-08T02:00:51;13.82;86.88
77592;DHT22;66891;46.884;17.436;2023-08-08T02:03:19;13.89;87.07
77592;DHT22;66891;46.884;17.436;2023-08-08T02:05:46;13.86;87.16
77592;DHT22;66891;46.884;17.436;2023-08-08T02:08:13;13.84;87.91
77592;DHT22;66891;46.884;17.436;2023-08-08T02:10:41;13.74;88.38
77592;DHT22;66891;46.884;17.436;2023-08-08T02:13:09;13.79;87.62
77592;DHT22;66891;46.884;17.436;2023-08-08T02:15:36;13.92;87.85
77592;DHT22;66891;46.884;17.436;2023-08-08T02:18:05;13.92;88.04
77592;DHT22;66891;46.884;17.436;2023-08-08T02:20:34;13.77;88.38
77592;DHT22;66891;46.884;17.436;2023-08-08T02:23:02;13.67;89.41
77592;DHT22;66891;46.884;17.436;2023-08-08T02:25:29;13.58;90.23
77592;DHT22;66891;46.884;17.436;2023-08-08T02:27:57;13.57;89.36
77592;DHT22;66891;46.884;17.436;2023-08-08T02:30:25;13.53;90.11
77592;DHT22;66891;46.884;17.436;2023-08-08T02:32:52;13.51;90.36
77592;DHT22;66891;46.884;17.436;2023-08-08T02:35:21;13.68;89.23
77592;DHT22;66891;46.884;17.436;2023-08-08T02:37:48;13.53;89.73
77592;DHT22;66891;46.884;17.436;2023-08-08T02:40:15;13.44;90.06
77592;DHT22;66891;46.884;17.436;2023-08-08T02:42:43;13.51;91.30
77592;DHT22;66891;46.884;17.436;2023-08-08T02:45:10;13.54;90.29
77592;DHT22;66891;46.884;17.436;2023-08-08T02:47:37;13.63;90.07
77592;DHT22;66891;46.884;17.436;2023-08-08T02:50:05;13.67;90.62
77592;DHT22;66891;46.884;17.436;2023-08-08T02:52:34;13.57;89.93
77592;DHT22;66891;46.884;17.436;2023-08-08T02:55:02;13.61;90.72
77592;DHT22;66891;46.884;17.436;2023-08-08T02:57:29;13.55;89.94
77592;DHT22;66891;46.884;17.436;2023-08-08T02:59:57;13.58;90.40
77592;DHT22;66891;46.884;17.436;2023-08-08T03:02:24;13.54;90.49
77592;DHT22;66891;46.884;17.436;2023-08-08T03:04:51;13.64;89.92
77592;DHT22;66891;46.884;17.436;2023-08-08T03:07:19;13.50;90.02
77592;DHT22;66891;46.884;17.436;2023-08-08T03:09:47;13.70;89.85
77592;DHT22;66891;46.884;17.436;2023-08-08T03:12:15;13.67;89.82
77592;DHT22;66891;46.884;17.436;2023-08-08T03:14:42;13.54;89.87
77592;DHT22;66891;46.884;17.436;2023-08-08T03:17:09;13.48;90.96
77592;DHT22;66891;46.884;17.436;2023-08-08T03:19:37;13.67;90.17
77592;DHT22;66891;46.884;17.436;2023-08-08T03:22:12;13.48;90.53
77592;DHT22;66891;46.884;17.436;2023-08-08T03:24:40;13.22;90.61
77592;DHT22;66891;46.884;17.436;2023-08-08T03:27:09;13.19;91.67
77592;DHT22;66891;46.884;17.436;2023-08-08T03:29:36;13.19;92.09
77592;DHT22;66891;46.884;17.436;2023-08-08T03:32:05;13.23;90.94
77592;DHT22;66891;46.884;17.436;2023-08-08T03:34:33;13.13;90.86
77592;DHT22;66891;46.884;17.436;2023-08-08T03:37:00;13.10;91.32
77592;DHT22;66891;46.884;17.436;2023-08-08T03:39:28;13.05;91.72
77592;DHT22;66891;46.884;17.436;2023-08-08T03:41:55;13.00;90.75
77592;DHT22;66891;46.884;17.436;2023-08-08T03:44:25;12.93;91.42
77592;DHT22;66891;46.884;17.436;2023-08-08T03:46:52;12.81;91.41
77592;DHT22;66891;46.884;17.436;2023-08-08T03:49:31;12.78;91.52
77592;DHT22;66891;46.884;17.436;2023-08-08T03:51:59;12.79;91.67
77592;DHT22;66891;46.884;17.436;2023-08-08T03:54:26;13.03;91.37
77592;DHT22;66891;46.884;17.436;2023-08-08T03:56:53;12.78;91.06
77592;DHT22;66891;46.884;17.436;2023-08-08T03:59:21;12.75;92.05
77592;DHT22;66891;46.884;17.436;2023-08-08T04:01:49;12.87;91.86
77592;DHT22;66891;46.884;17.436;2023-08-08T04:04:17;12.74;91.24
77592;DHT22;66891;46.884;17.436;2023-08-08T04:06:44;12.64;91.45
77592;DHT22;66891;46.884;17.436;2023-08-08T04:09:11;12.89;91.35
77592;DHT22;66891;46.884;17.436;2023-08-08T04:11:39;12.77;91.64
77592;DHT22;66891;46.884;17.436;2023-08-08T04:14:06;12.77;91.54
77592;DHT22;66891;46.884;17.436;2023-08-08T04:16:33;12.78;91.75
77592;DHT22;66891;46.884;17.436;2023-08-08T04:19:02;12.78;92.10
77592;DHT22;66891;46.884;17.436;2023-08-08T04:21:30;12.81;91.81
77592;DHT22;66891;46.884;17.436;2023-08-08T04:23:59;12.68;91.29
77592;DHT22;66891;46.884;17.436;2023-08-08T04:26:27;12.89;91.36
77592;DHT22;66891;46.884;17.436;2023-08-08T04:28:54;12.87;91.65
77592;DHT22;66891;46.884;17.436;2023-08-08T04:31:22;12.72;91.45
77592;DHT22;66891;46.884;17.436;2023-08-08T04:33:52;12.68;91.17
77592;DHT22;66891;46.884;17.436;2023-08-08T04:36:29;12.67;91.21
77592;DHT22;66891;46.884;17.436;2023-08-08T04:38:57;12.62;91.39
77592;DHT22;66891;46.884;17.436;2023-08-08T04:41:24;12.71;91.31
77592;DHT22;66891;46.884;17.436;2023-08-08T04:43:52;12.67;91.08
77592;DHT22;66891;46.884;17.436;2023-08-08T04:46:19;12.71;90.27
77592;DHT22;66891;46.884;17.436;2023-08-08T04:48:46;12.79;90.59
77592;DHT22;66891;46.884;17.436;2023-08-08T04:51:14;12.77;90.70
77592;DHT22;66891;46.884;17.436;2023-08-08T04:53:42;12.88;90.75
77592;DHT22;66891;46.884;17.436;2023-08-08T04:56:10;12.92;90.69
77592;DHT22;66891;46.884;17.436;2023-08-08T04:58:37;12.95;90.63
77592;DHT22;66891;46.884;17.436;2023-08-08T05:01:05;13.17;90.69
77592;DHT22;66891;46.884;17.436;2023-08-08T05:03:32;13.40;90.73
77592;DHT22;66891;46.884;17.436;2023-08-08T05:05:59;13.46;91.19
77592;DHT22;66891;46.884;17.436;2023-08-08T05:08:27;13.48;91.48
77592;DHT22;66891;46.884;17.436;2023-08-08T05:10:56;13.57;90.70
77592;DHT22;66891;46.884;17.436;2023-08-08T05:13:23;13.53;90.53
77592;DHT22;66891;46.884;17.436;2023-08-08T05:15:51;13.67;90.59
77592;DHT22;66891;46.884;17.436;2023-08-08T05:18:18;13.74;89.09
77592;DHT22;66891;46.884;17.436;2023-08-08T05:20:46;13.82;90.13
77592;DHT22;66891;46.884;17.436;2023-08-08T05:23:13;13.88;88.38
77592;DHT22;66891;46.884;17.436;2023-08-08T05:25:40;13.98;89.12
77592;DHT22;66891;46.884;17.436;2023-08-08T05:28:09;14.00;87.50
77592;DHT22;66891;46.884;17.436;2023-08-08T05:30:36;14.15;86.67
77592;DHT22;66891;46.884;17.436;2023-08-08T05:33:04;14.30;86.89
77592;DHT22;66891;46.884;17.436;2023-08-08T05:35:31;14.46;83.21
77592;DHT22;66891;46.884;17.436;2023-08-08T05:37:59;14.59;83.86
77592;DHT22;66891;46.884;17.436;2023-08-08T05:40:26;14.50;85.18
77592;DHT22;66891;46.884;17.436;2023-08-08T05:42:53;14.68;85.43
77592;DHT22;66891;46.884;17.436;2023-08-08T05:45:22;14.76;85.25
77592;DHT22;66891;46.884;17.436;2023-08-08T05:47:49;14.97;84.29
77592;DHT22;66891;46.884;17.436;2023-08-08T05:50:17;14.98;85.48
77592;DHT22;66891;46.884;17.436;2023-08-08T05:52:44;15.12;86.32
77592;DHT22;66891;46.884;17.436;2023-08-08T05:55:11;15.21;86.32
77592;DHT22;66891;46.884;17.436;2023-08-08T05:57:39;15.25;86.09
77592;DHT22;66891;46.884;17.436;2023-08-08T06:00:07;15.29;86.20
77592;DHT22;66891;46.884;17.436;2023-08-08T06:02:39;15.31;84.94
77592;DHT22;66891;46.884;17.436;2023-08-08T06:05:08;15.35;85.31
77592;DHT22;66891;46.884;17.436;2023-08-08T06:07:35;15.45;85.54
77592;DHT22;66891;46.884;17.436;2023-08-08T06:10:03;15.54;85.82
77592;DHT22;66891;46.884;17.436;2023-08-08T06:12:33;15.77;84.00
77592;DHT22;66891;46.884;17.436;2023-08-08T06:15:00;15.93;83.26
77592;DHT22;66891;46.884;17.436;2023-08-08T06:17:28;16.07;79.36
77592;DHT22;66891;46.884;17.436;2023-08-08T06:19:56;16.11;75.80
77592;DHT22;66891;46.884;17.436;2023-08-08T06:22:24;16.20;78.04
77592;DHT22;66891;46.884;17.436;2023-08-08T06:24:53;16.38;76.62
77592;DHT22;66891;46.884;17.436;2023-08-08T06:27:20;16.48;75.75
77592;DHT22;66891;46.884;17.436;2023-08-08T06:29:47;16.63;73.84
77592;DHT22;66891;46.884;17.436;2023-08-08T06:32:14;16.69;75.35
77592;DHT22;66891;46.884;17.436;2023-08-08T06:34:42;16.99;74.35
77592;DHT22;66891;46.884;17.436;2023-08-08T06:37:10;18.11;73.19
77592;DHT22;66891;46.884;17.436;2023-08-08T06:39:38;17.68;74.76
77592;DHT22;66891;46.884;17.436;2023-08-08T06:42:07;17.55;73.60
77592;DHT22;66891;46.884;17.436;2023-08-08T06:44:41;17.52;72.05
77592;DHT22;66891;46.884;17.436;2023-08-08T06:47:09;17.45;71.08
77592;DHT22;66891;46.884;17.436;2023-08-08T06:49:36;17.48;69.57
77592;DHT22;66891;46.884;17.436;2023-08-08T06:52:04;17.46;70.80
77592;DHT22;66891;46.884;17.436;2023-08-08T06:54:34;17.44;71.37
77592;DHT22;66891;46.884;17.436;2023-08-08T06:57:01;17.18;72.25
77592;DHT22;66891;46.884;17.436;2023-08-08T06:59:29;17.34;71.97
77592;DHT22;66891;46.884;17.436;2023-08-08T07:01:56;17.34;73.33
77592;DHT22;66891;46.884;17.436;2023-08-08T07:04:24;17.34;74.32
77592;DHT22;66891;46.884;17.436;2023-08-08T07:06:51;17.44;72.34
77592;DHT22;66891;46.884;17.436;2023-08-08T07:09:19;17.59;72.58
77592;DHT22;66891;46.884;17.436;2023-08-08T07:11:47;17.63;74.05
77592;DHT22;66891;46.884;17.436;2023-08-08T07:14:15;17.65;74.51
77592;DHT22;66891;46.884;17.436;2023-08-08T07:16:42;17.75;74.38
77592;DHT22;66891;46.884;17.436;2023-08-08T07:19:09;17.63;74.50
77592;DHT22;66891;46.884;17.436;2023-08-08T07:21:38;17.73;70.84
77592;DHT22;66891;46.884;17.436;2023-08-08T07:24:06;17.79;72.37
77592;DHT22;66891;46.884;17.436;2023-08-08T07:26:35;18.06;71.57
77592;DHT22;66891;46.884;17.436;2023-08-08T07:29:04;18.21;71.96
77592;DHT22;66891;46.884;17.436;2023-08-08T07:31:33;18.06;73.06
77592;DHT22;66891;46.884;17.436;2023-08-08T07:34:00;18.14;74.25
77592;DHT22;66891;46.884;17.436;2023-08-08T07:36:28;18.17;72.61
77592;DHT22;66891;46.884;17.436;2023-08-08T07:38:55;18.26;72.51
77592;DHT22;66891;46.884;17.436;2023-08-08T07:41:29;18.14;73.02
77592;DHT22;66891;46.884;17.436;2023-08-08T07:43:57;18.23;73.46
77592;DHT22;66891;46.884;17.436;2023-08-08T07:46:25;18.44;71.78
77592;DHT22;66891;46.884;17.436;2023-08-08T07:48:53;18.69;72.37
77592;DHT22;66891;46.884;17.436;2023-08-08T07:51:20;18.75;72.81
77592;DHT22;66891;46.884;17.436;2023-08-08T07:53:48;18.81;72.64
77592;DHT22;66891;46.884;17.436;2023-08-08T07:56:15;18.92;68.16
77592;DHT22;66891;46.884;17.436;2023-08-08T07:58:42;19.20;64.65
77592;DHT22;66891;46.884;17.436;2023-08-08T08:01:10;19.28;61.60
77592;DHT22;66891;46.884;17.436;2023-08-08T08:03:40;19.23;61.04
77592;DHT22;66891;46.884;17.436;2023-08-08T08:06:09;19.35;62.29
77592;DHT22;66891;46.884;17.436;2023-08-08T08:08:36;19.34;60.44
77592;DHT22;66891;46.884;17.436;2023-08-08T08:11:03;19.43;58.38
77592;DHT22;66891;46.884;17.436;2023-08-08T08:13:30;19.67;60.30
77592;DHT22;66891;46.884;17.436;2023-08-08T08:15:58;19.92;60.38
77592;DHT22;66891;46.884;17.436;2023-08-08T08:18:25;19.82;58.30
77592;DHT22;66891;46.884;17.436;2023-08-08T08:20:54;19.85;57.66
77592;DHT22;66891;46.884;17.436;2023-08-08T08:23:22;20.10;58.54
77592;DHT22;66891;46.884;17.436;2023-08-08T08:25:49;20.12;56.05
77592;DHT22;66891;46.884;17.436;2023-08-08T08:28:17;20.29;55.34
77592;DHT22;66891;46.884;17.436;2023-08-08T08:30:45;20.27;56.97
77592;DHT22;66891;46.884;17.436;2023-08-08T08:33:12;19.95;54.90
77592;DHT22;66891;46.884;17.436;2023-08-08T08:35:39;19.98;57.18
77592;DHT22;66891;46.884;17.436;2023-08-08T08:38:08;20.06;56.77
77592;DHT22;66891;46.884;17.436;2023-08-08T08:40:37;20.30;57.78
77592;DHT22;66891;46.884;17.436;2023-08-08T08:43:05;20.48;58.61
77592;DHT22;66891;46.884;17.436;2023-08-08T08:45:37;20.74;58.23
77592;DHT22;66891;46.884;17.436;2023-08-08T08:48:09;20.83;56.67
77592;DHT22;66891;46.884;17.436;2023-08-08T08:50:38;20.87;56.68
77592;DHT22;66891;46.884;17.436;2023-08-08T08:53:11;20.78;54.90
77592;DHT22;66891;46.884;17.436;2023-08-08T08:55:41;21.02;55.96
77592;DHT22;66891;46.884;17.436;2023-08-08T08:58:09;20.78;55.07
77592;DHT22;66891;46.884;17.436;2023-08-08T09:00:37;21.13;58.01
77592;DHT22;66891;46.884;17.436;2023-08-08T09:03:05;21.16;53.34
77592;DHT22;66891;46.884;17.436;2023-08-08T09:05:33;21.06;53.07
77592;DHT22;66891;46.884;17.436;2023-08-08T09:08:02;21.19;53.52
77592;DHT22;66891;46.884;17.436;2023-08-08T09:10:32;21.12;54.07
77592;DHT22;66891;46.884;17.436;2023-08-08T09:12:59;21.01;52.94
77592;DHT22;66891;46.884;17.436;2023-08-08T09:15:30;20.99;56.85
77592;DHT22;66891;46.884;17.436;2023-08-08T09:17:57;21.02;59.12
77592;DHT22;66891;46.884;17.436;2023-08-08T09:20:26;21.04;59.49
77592;DHT22;66891;46.884;17.436;2023-08-08T09:22:56;20.71;60.84
77592;DHT22;66891;46.884;17.436;2023-08-08T09:25:23;21.42;60.38
77592;DHT22;66891;46.884;17.436;2023-08-08T09:27:52;21.39;61.01
77592;DHT22;66891;46.884;17.436;2023-08-08T09:30:20;21.69;60.83
77592;DHT22;66891;46.884;17.436;2023-08-08T09:32:48;21.66;62.34
77592;DHT22;66891;46.884;17.436;2023-08-08T09:35:16;21.90;62.14
77592;DHT22;66891;46.884;17.436;2023-08-08T09:37:43;22.00;62.73
77592;DHT22;66891;46.884;17.436;2023-08-08T09:40:10;21.59;62.57
77592;DHT22;66891;46.884;17.436;2023-08-08T09:42:40;21.53;61.16
77592;DHT22;66891;46.884;17.436;2023-08-08T09:45:10;21.78;63.06
77592;DHT22;66891;46.884;17.436;2023-08-08T09:47:37;21.86;62.89
77592;DHT22;66891;46.884;17.436;2023-08-08T09:50:06;21.73;61.69
77592;DHT22;66891;46.884;17.436;2023-08-08T09:52:34;21.45;62.47
77592;DHT22;66891;46.884;17.436;2023-08-08T09:55:03;21.57;63.86
77592;DHT22;66891;46.884;17.436;2023-08-08T09:57:31;21.33;62.62
77592;DHT22;66891;46.884;17.436;2023-08-08T09:59:59;21.32;61.04
77592;DHT22;66891;46.884;17.436;2023-08-08T10:02:29;21.25;57.00
77592;DHT22;66891;46.884;17.436;2023-08-08T10:04:57;20.96;56.41
77592;DHT22;66891;46.884;17.436;2023-08-08T10:07:25;21.12;55.87
77592;DHT22;66891;46.884;17.436;2023-08-08T10:09:52;21.31;55.94
77592;DHT22;66891;46.884;17.436;2023-08-08T10:12:20;21.73;58.80
77592;DHT22;66891;46.884;17.436;2023-08-08T10:14:47;21.98;59.04
77592;DHT22;66891;46.884;17.436;2023-08-08T10:17:15;22.28;57.41
77592;DHT22;66891;46.884;17.436;2023-08-08T10:19:51;22.02;56.25
77592;DHT22;66891;46.884;17.436;2023-08-08T10:22:21;22.17;55.96
77592;DHT22;66891;46.884;17.436;2023-08-08T10:24:51;22.42;57.58
77592;DHT22;66891;46.884;17.436;2023-08-08T10:27:31;22.55;54.31
77592;DHT22;66891;46.884;17.436;2023-08-08T10:30:04;22.72;57.02
77592;DHT22;66891;46.884;17.436;2023-08-08T10:32:39;23.04;56.20
77592;DHT22;66891;46.884;17.436;2023-08-08T10:35:09;23.22;53.97
77592;DHT22;66891;46.884;17.436;2023-08-08T10:37:37;23.00;55.40
77592;DHT22;66891;46.884;17.436;2023-08-08T10:40:06;23.18;55.08
77592;DHT22;66891;46.884;17.436;2023-08-08T10:42:42;23.28;55.93
77592;DHT22;66891;46.884;17.436;2023-08-08T10:45:11;23.17;52.74
77592;DHT22;66891;46.884;17.436;2023-08-08T10:47:42;23.15;54.56
77592;DHT22;66891;46.884;17.436;2023-08-08T10:50:12;22.94;56.41
77592;DHT22;66891;46.884;17.436;2023-08-08T10:52:51;23.06;51.97
77592;DHT22;66891;46.884;17.436;2023-08-08T10:55:20;23.06;54.96
77592;DHT22;66891;46.884;17.436;2023-08-08T10:57:58;22.86;55.67
77592;DHT22;66891;46.884;17.436;2023-08-08T11:00:28;23.31;56.19
77592;DHT22;66891;46.884;17.436;2023-08-08T11:02:57;23.70;50.09
77592;DHT22;66891;46.884;17.436;2023-08-08T11:05:28;24.33;49.71
77592;DHT22;66891;46.884;17.436;2023-08-08T11:07:57;24.00;49.23
77592;DHT22;66891;46.884;17.436;2023-08-08T11:10:25;24.71;50.03
77592;DHT22;66891;46.884;17.436;2023-08-08T11:12:59;25.63;51.36
77592;DHT22;66891;46.884;17.436;2023-08-08T11:15:27;26.08;47.57
77592;DHT22;66891;46.884;17.436;2023-08-08T11:17:56;26.67;48.57
77592;DHT22;66891;46.884;17.436;2023-08-08T11:20:28;26.05;48.04
77592;DHT22;66891;46.884;17.436;2023-08-08T11:22:56;26.02;48.13
77592;DHT22;66891;46.884;17.436;2023-08-08T11:25:26;26.67;46.64
77592;DHT22;66891;46.884;17.436;2023-08-08T11:27:54;27.07;43.44
77592;DHT22;66891;46.884;17.436;2023-08-08T11:30:23;26.32;45.14
77592;DHT22;66891;46.884;17.436;2023-08-08T11:32:51;25.13;46.89
77592;DHT22;66891;46.884;17.436;2023-08-08T11:35:23;24.00;49.52
77592;DHT22;66891;46.884;17.436;2023-08-08T11:37:56;23.76;53.63
77592;DHT22;66891;46.884;17.436;2023-08-08T11:40:26;23.83;49.87
77592;DHT22;66891;46.884;17.436;2023-08-08T11:42:54;23.70;49.74
77592;DHT22;66891;46.884;17.436;2023-08-08T11:45:23;25.63;46.64
77592;DHT22;66891;46.884;17.436;2023-08-08T11:47:54;26.44;43.02
77592;DHT22;66891;46.884;17.436;2023-08-08T11:50:24;27.04;42.65
77592;DHT22;66891;46.884;17.436;2023-08-08T11:52:54;25.89;44.81
77592;DHT22;66891;46.884;17.436;2023-08-08T11:55:27;25.17;45.83
77592;DHT22;66891;46.884;17.436;2023-08-08T11:57:57;25.60;44.73
77592;DHT22;66891;46.884;17.436;2023-08-08T12:00:28;26.40;42.99
77592;DHT22;66891;46.884;17.436;2023-08-08T12:03:00;26.98;45.15
77592;DHT22;66891;46.884;17.436;2023-08-08T12:05:36;28.47;41.80
77592;DHT22;66891;46.884;17.436;2023-08-08T12:08:06;28.42;39.72
77592;DHT22;66891;46.884;17.436;2023-08-08T12:10:34;27.28;44.72
77592;DHT22;66891;46.884;17.436;2023-08-08T12:13:01;27.36;43.63
77592;DHT22;66891;46.884;17.436;2023-08-08T12:15:29;27.71;41.43
77592;DHT22;66891;46.884;17.436;2023-08-08T12:17:57;28.68;41.81
77592;DHT22;66891;46.884;17.436;2023-08-08T12:20:27;27.69;44.08
77592;DHT22;66891;46.884;17.436;2023-08-08T12:22:54;28.34;44.43
77592;DHT22;66891;46.884;17.436;2023-08-08T12:25:23;29.88;37.98
77592;DHT22;66891;46.884;17.436;2023-08-08T12:27:51;29.17;41.07
77592;DHT22;66891;46.884;17.436;2023-08-08T12:30:19;30.72;36.69
77592;DHT22;66891;46.884;17.436;2023-08-08T12:32:47;31.22;35.68
77592;DHT22;66891;46.884;17.436;2023-08-08T12:35:15;31.16;35.45
77592;DHT22;66891;46.884;17.436;2023-08-08T12:37:43;29.86;36.78
77592;DHT22;66891;46.884;17.436;2023-08-08T12:40:11;29.81;38.25
77592;DHT22;66891;46.884;17.436;2023-08-08T12:42:40;30.20;36.26
77592;DHT22;66891;46.884;17.436;2023-08-08T12:45:09;28.55;38.53
77592;DHT22;66891;46.884;17.436;2023-08-08T12:47:37;26.90;41.13
77592;DHT22;66891;46.884;17.436;2023-08-08T12:50:05;25.77;41.80
77592;DHT22;66891;46.884;17.436;2023-08-08T12:52:33;25.61;45.09
77592;DHT22;66891;46.884;17.436;2023-08-08T12:55:02;25.85;45.11
77592;DHT22;66891;46.884;17.436;2023-08-08T12:57:31;25.13;48.25
77592;DHT22;66891;46.884;17.436;2023-08-08T12:59:59;27.24;42.45
77592;DHT22;66891;46.884;17.436;2023-08-08T13:02:27;27.25;42.27
77592;DHT22;66891;46.884;17.436;2023-08-08T13:04:55;27.71;40.34
77592;DHT22;66891;46.884;17.436;2023-08-08T13:07:22;28.34;38.90
77592;DHT22;66891;46.884;17.436;2023-08-08T13:09:50;26.95;42.09
77592;DHT22;66891;46.884;17.436;2023-08-08T13:12:17;26.26;46.67
77592;DHT22;66891;46.884;17.436;2023-08-08T13:14:45;24.93;47.47
77592;DHT22;66891;46.884;17.436;2023-08-08T13:17:14;25.00;45.01
77592;DHT22;66891;46.884;17.436;2023-08-08T13:19:41;25.13;45.67
77592;DHT22;66891;46.884;17.436;2023-08-08T13:22:09;25.16;44.69
77592;DHT22;66891;46.884;17.436;2023-08-08T13:24:37;25.60;47.82
77592;DHT22;66891;46.884;17.436;2023-08-08T13:27:04;25.64;46.28
77592;DHT22;66891;46.884;17.436;2023-08-08T13:29:32;25.67;44.50
77592;DHT22;66891;46.884;17.436;2023-08-08T13:31:59;25.19;48.42
77592;DHT22;66891;46.884;17.436;2023-08-08T13:34:29;25.19;46.62
77592;DHT22;66891;46.884;17.436;2023-08-08T13:36:56;25.38;45.12
77592;DHT22;66891;46.884;17.436;2023-08-08T13:39:23;24.98;45.96
77592;DHT22;66891;46.884;17.436;2023-08-08T13:41:51;24.82;48.91
77592;DHT22;66891;46.884;17.436;2023-08-08T13:44:18;24.45;48.94
77592;DHT22;66891;46.884;17.436;2023-08-08T13:46:45;24.00;46.29
77592;DHT22;66891;46.884;17.436;2023-08-08T13:49:13;23.93;47.33
77592;DHT22;66891;46.884;17.436;2023-08-08T13:51:42;23.93;45.14
77592;DHT22;66891;46.884;17.436;2023-08-08T13:54:14;23.96;49.26
77592;DHT22;66891;46.884;17.436;2023-08-08T13:56:41;24.17;49.08
77592;DHT22;66891;46.884;17.436;2023-08-08T13:59:09;24.65;46.12
77592;DHT22;66891;46.884;17.436;2023-08-08T14:01:36;24.50;45.59
77592;DHT22;66891;46.884;17.436;2023-08-08T14:04:04;24.40;50.05
77592;DHT22;66891;46.884;17.436;2023-08-08T14:06:31;24.43;48.04
77592;DHT22;66891;46.884;17.436;2023-08-08T14:09:00;24.51;47.24
77592;DHT22;66891;46.884;17.436;2023-08-08T14:11:28;24.40;47.12
77592;DHT22;66891;46.884;17.436;2023-08-08T14:13:55;24.33;49.23
77592;DHT22;66891;46.884;17.436;2023-08-08T14:16:22;23.92;50.01
77592;DHT22;66891;46.884;17.436;2023-08-08T14:18:50;23.72;47.88
77592;DHT22;66891;46.884;17.436;2023-08-08T14:21:18;23.48;50.90
77592;DHT22;66891;46.884;17.436;2023-08-08T14:23:45;23.54;48.06
77592;DHT22;66891;46.884;17.436;2023-08-08T14:26:15;23.48;47.74
77592;DHT22;66891;46.884;17.436;2023-08-08T14:28:43;23.54;48.73
77592;DHT22;66891;46.884;17.436;2023-08-08T14:31:10;23.90;47.78
77592;DHT22;66891;46.884;17.436;2023-08-08T14:33:38;23.97;46.73
77592;DHT22;66891;46.884;17.436;2023-08-08T14:36:06;24.16;47.44
77592;DHT22;66891;46.884;17.436;2023-08-08T14:38:34;24.16;46.25
77592;DHT22;66891;46.884;17.436;2023-08-08T14:41:02;23.92;47.12
77592;DHT22;66891;46.884;17.436;2023-08-08T14:43:31;23.69;48.84
77592;DHT22;66891;46.884;17.436;2023-08-08T14:45:59;23.55;48.81
77592;DHT22;66891;46.884;17.436;2023-08-08T14:48:27;23.27;49.68
77592;DHT22;66891;46.884;17.436;2023-08-08T14:50:54;23.49;49.26
77592;DHT22;66891;46.884;17.436;2023-08-08T14:53:22;23.59;48.35
77592;DHT22;66891;46.884;17.436;2023-08-08T14:55:50;23.63;50.74
77592;DHT22;66891;46.884;17.436;2023-08-08T14:58:17;23.85;49.84
77592;DHT22;66891;46.884;17.436;2023-08-08T15:00:46;24.13;47.12
77592;DHT22;66891;46.884;17.436;2023-08-08T15:03:16;23.95;47.01
77592;DHT22;66891;46.884;17.436;2023-08-08T15:05:46;23.90;48.91
77592;DHT22;66891;46.884;17.436;2023-08-08T15:08:18;23.89;46.00
77592;DHT22;66891;46.884;17.436;2023-08-08T15:10:46;23.77;46.62
77592;DHT22;66891;46.884;17.436;2023-08-08T15:13:13;23.62;48.37
77592;DHT22;66891;46.884;17.436;2023-08-08T15:15:40;23.66;48.48
77592;DHT22;66891;46.884;17.436;2023-08-08T15:18:09;23.62;48.83
77592;DHT22;66891;46.884;17.436;2023-08-08T15:20:37;23.68;48.88
77592;DHT22;66891;46.884;17.436;2023-08-08T15:23:04;23.63;47.23